Time;durP1;ratioP1;P1;durP2;ratioP2;P2;SDS_P1;SDS_P2;PMS_P1;PMS_P2;Temp;Humidity;BMP_temperature;BMP_pressure;BME280_temperature;BME280_humidity;BME280_pressure;Samples;Min_cycle;Max_cycle;Signal;HPM_P1;HPM_P2
2020/12/05 00:01:06;;;;;;;36.27;21.37;;;;;;;4.75;70.91;99341.30;126653;1093;104570;-78
2020/12/05 00:03:33;;;;;;;35.00;20.57;;;;;;;4.76;71.02;99371.42;126418;1093;104400;-78
2020/12/05 00:06:01;;;;;;;31.43;20.50;;;;;;;4.78;71.04;99327.47;126622;1098;104531;-78
2020/12/05 00:08:28;;;;;;;32.23;21.10;;;;;;;4.80;71.11;99330.86;126684;1093;104429;-78
2020/12/05 00:10:56;;;;;;;35.33;22.07;;;;;;;4.79;70.85;99345.52;126763;1093;104190;-78
2020/12/05 00:13:23;;;;;;;36.77;21.17;;;;;;;4.78;70.55;99317.98;126679;1093;104378;-78
2020/12/05 00:15:50;;;;;;;35.60;21.17;;;;;;;4.78;70.92;99323.15;126630;1093;104501;-78
2020/12/05 00:18:18;;;;;;;34.40;21.53;;;;;;;4.79;70.47;99330.01;126478;1098;103398;-79
2020/12/05 00:20:46;;;;;;;33.37;21.37;;;;;;;4.79;70.90;99317.09;126625;1093;104446;-77
2020/12/05 00:23:14;;;;;;;32.87;20.97;;;;;;;4.78;70.98;99330.90;126670;1098;104442;-78
2020/12/05 00:25:41;;;;;;;32.20;20.37;;;;;;;4.78;70.68;99341.23;126633;1099;104433;-77
2020/12/05 00:28:08;;;;;;;35.55;21.50;;;;;;;4.77;70.73;99321.45;126698;1093;104394;-78
2020/12/05 00:30:36;;;;;;;38.57;22.43;;;;;;;4.77;70.83;99326.62;126635;1093;105198;-78
2020/12/05 00:33:03;;;;;;;31.07;19.53;;;;;;;4.77;70.94;99336.95;126650;1098;104446;-77
2020/12/05 00:35:31;;;;;;;32.30;20.07;;;;;;;4.77;70.93;99336.95;126665;1098;104488;-78
2020/12/05 00:37:58;;;;;;;34.33;21.30;;;;;;;4.76;70.95;99343.00;126668;1093;102189;-78
2020/12/05 00:40:25;;;;;;;36.27;21.27;;;;;;;4.76;70.62;99345.59;126667;1093;104451;-78
2020/12/05 00:42:52;;;;;;;31.07;19.43;;;;;;;4.76;70.34;99324.07;126655;1098;104430;-78
2020/12/05 00:45:19;;;;;;;31.67;20.20;;;;;;;4.79;70.87;99350.67;126786;1099;104389;-77
2020/12/05 00:47:46;;;;;;;31.93;19.73;;;;;;;4.80;70.70;99347.20;126627;1093;104402;-78
2020/12/05 00:50:14;;;;;;;30.47;19.17;;;;;;;4.81;70.40;99348.91;126655;1094;104420;-77
2020/12/05 00:52:41;;;;;;;33.10;19.97;;;;;;;4.81;70.67;99373.89;126380;1099;104938;-77
2020/12/05 00:55:08;;;;;;;32.67;20.57;;;;;;;4.80;70.15;99356.69;126649;1098;104436;-77
2020/12/05 00:57:37;;;;;;;29.60;19.93;;;;;;;4.80;70.93;99351.53;126667;1093;104471;-77
2020/12/05 01:00:08;;;;;;;32.57;20.53;;;;;;;4.78;70.84;99342.97;126696;1093;104397;-77
2020/12/05 01:02:35;;;;;;;29.93;18.77;;;;;;;4.79;71.05;99363.59;126674;1098;104362;-77
2020/12/05 01:05:03;;;;;;;32.70;20.93;;;;;;;4.82;70.23;99349.75;126612;1098;104404;-77
2020/12/05 01:07:30;;;;;;;36.90;20.70;;;;;;;4.81;70.75;99348.05;126664;1098;104472;-77
2020/12/05 01:09:58;;;;;;;30.60;18.30;;;;;;;4.80;70.90;99346.36;126665;1094;104442;-76
2020/12/05 01:12:25;;;;;;;31.48;19.42;;;;;;;4.81;70.29;99341.16;126633;1093;104480;-76
2020/12/05 01:14:52;;;;;;;30.72;20.20;;;;;;;4.83;70.51;99346.28;126661;1093;104455;-77
2020/12/05 01:17:26;;;;;;;30.40;20.10;;;;;;;4.79;70.33;99386.00;126390;1093;104613;-76
2020/12/05 01:19:56;;;;;;;29.43;18.67;;;;;;;4.75;70.44;99343.89;126658;1098;104494;-77
2020/12/05 01:22:23;;;;;;;32.00;19.33;;;;;;;4.75;71.12;99363.70;126626;1093;104391;-76
2020/12/05 01:24:51;;;;;;;30.43;19.67;;;;;;;4.73;71.04;99384.41;126657;1098;104411;-78
2020/12/05 01:27:18;;;;;;;31.90;20.47;;;;;;;4.72;71.03;99372.38;126630;1093;104404;-76
2020/12/05 01:29:46;;;;;;;30.73;18.77;;;;;;;4.72;70.47;99376.70;126640;1093;104384;-77
2020/12/05 01:32:13;;;;;;;32.10;19.10;;;;;;;4.69;71.26;99349.20;126642;1098;104469;-76
2020/12/05 01:34:40;;;;;;;31.23;19.50;;;;;;;4.69;71.18;99364.70;126490;1093;104535;-77
2020/12/05 01:37:08;;;;;;;30.40;18.40;;;;;;;4.66;70.71;99377.66;126612;1093;104452;-77
2020/12/05 01:39:36;;;;;;;29.13;17.63;;;;;;;4.64;71.12;99371.68;126685;1093;104375;-77
2020/12/05 01:42:04;;;;;;;29.40;19.98;;;;;;;4.64;71.36;99389.77;126663;1093;104406;-77
2020/12/05 01:44:31;;;;;;;29.70;19.07;;;;;;;4.65;71.41;99373.38;126749;1098;104474;-77
2020/12/05 01:47:01;;;;;;;28.17;17.70;;;;;;;4.64;71.43;99376.00;126600;1093;104433;-77
2020/12/05 01:49:29;;;;;;;28.83;19.20;;;;;;;4.65;71.57;99383.71;126651;1098;104420;-77
2020/12/05 01:51:57;;;;;;;30.87;18.33;;;;;;;4.64;71.17;99361.35;126728;1099;104479;-76
2020/12/05 01:54:25;;;;;;;29.30;18.73;;;;;;;4.63;71.53;99374.30;126418;1098;104916;-77
2020/12/05 01:57:01;;;;;;;28.73;18.17;;;;;;;4.62;71.29;99375.19;126668;1093;104471;-77
2020/12/05 01:59:29;;;;;;;25.77;17.42;;;;;;;4.60;71.72;99367.48;126714;1093;104398;-77
2020/12/05 02:02:05;;;;;;;29.40;19.53;;;;;;;4.60;71.84;99374.38;126744;1093;101971;-78
2020/12/05 02:05:02;;;;;;;29.80;18.50;;;;;;;4.57;71.91;99377.03;126806;1093;104589;-78
2020/12/05 02:07:43;;;;;;;25.95;17.20;;;;;;;4.54;71.72;99370.20;126651;1093;104453;-78
2020/12/05 02:10:16;;;;;;;27.57;18.07;;;;;;;4.55;72.01;99382.23;126712;1093;104446;-77
2020/12/05 02:12:54;;;;;;;29.47;17.90;;;;;;;4.52;72.17;99357.33;126680;1098;104406;-77
2020/12/05 02:15:28;;;;;;;25.93;17.23;;;;;;;4.52;72.12;99359.06;126669;1098;104624;-78
2020/12/05 02:17:58;;;;;;;27.10;17.40;;;;;;;4.52;72.23;99371.97;126655;1093;104503;-77
2020/12/05 02:20:29;;;;;;;29.43;18.70;;;;;;;4.55;72.32;99356.41;126609;1093;104493;-78
2020/12/05 02:22:57;;;;;;;28.07;18.23;;;;;;;4.54;72.11;99350.39;126627;1091;104833;-76
2020/12/05 02:25:24;;;;;;;27.03;17.50;;;;;;;4.57;72.34;99359.80;126689;1093;104388;-78
2020/12/05 02:27:51;;;;;;;29.50;18.30;;;;;;;4.60;72.06;99370.05;126655;1091;104487;-78
2020/12/05 02:30:18;;;;;;;27.53;17.50;;;;;;;4.62;72.35;99355.38;126660;1098;104495;-78
2020/12/05 02:32:45;;;;;;;26.60;16.93;;;;;;;4.63;72.39;99354.48;126614;1093;104381;-77
2020/12/05 02:35:13;;;;;;;24.43;16.20;;;;;;;4.63;71.63;99338.99;126686;1093;104445;-77
2020/12/05 02:37:45;;;;;;;24.37;16.90;;;;;;;4.65;72.01;99336.38;126663;1093;104529;-76
2020/12/05 02:40:12;;;;;;;26.97;17.23;;;;;;;4.65;71.65;99355.30;126504;1093;104432;-77
2020/12/05 02:42:39;;;;;;;24.50;16.05;;;;;;;4.66;71.68;99353.56;126682;1093;104481;-78
2020/12/05 02:45:10;;;;;;;25.17;16.75;;;;;;;4.67;71.82;99340.64;126630;1093;104503;-77
2020/12/05 02:47:37;;;;;;;27.90;17.70;;;;;;;4.70;72.07;99334.56;126736;1093;104413;-78
2020/12/05 02:50:05;;;;;;;25.37;16.10;;;;;;;4.70;72.03;99358.66;126698;1093;104368;-78
2020/12/05 02:52:32;;;;;;;27.77;16.97;;;;;;;4.71;71.32;99357.77;126721;1099;104628;-77
2020/12/05 02:54:59;;;;;;;24.20;16.00;;;;;;;4.71;71.86;99362.09;126615;1093;104513;-77
2020/12/05 02:57:26;;;;;;;26.10;18.77;;;;;;;4.72;72.07;99372.38;126333;1098;103376;-77
2020/12/05 02:59:54;;;;;;;24.40;16.52;;;;;;;4.70;72.01;99366.41;126651;1093;104442;-77
2020/12/05 03:02:21;;;;;;;24.97;16.87;;;;;;;4.70;72.04;99356.07;126580;1093;104522;-77
2020/12/05 03:04:48;;;;;;;26.73;17.57;;;;;;;4.72;71.52;99369.80;126454;1099;104478;-77
2020/12/05 03:07:17;;;;;;;26.53;17.70;;;;;;;4.72;71.63;99371.53;126650;1093;104193;-77
2020/12/05 03:09:44;;;;;;;24.97;16.23;;;;;;;4.72;71.83;99384.45;126646;1093;104461;-77
2020/12/05 03:12:11;;;;;;;26.60;16.33;;;;;;;4.75;72.08;99374.04;126673;1093;104468;-77
2020/12/05 03:14:39;;;;;;;25.00;16.97;;;;;;;4.77;72.16;99388.62;126625;1098;104388;-78
2020/12/05 03:17:06;;;;;;;24.97;16.63;;;;;;;4.78;71.97;99382.56;126512;1098;105852;-77
2020/12/05 03:19:33;;;;;;;24.92;16.02;;;;;;;4.79;71.45;99373.92;126678;1093;104405;-77
2020/12/05 03:22:00;;;;;;;27.83;17.20;;;;;;;4.83;72.06;99361.78;126556;1093;104471;-77
2020/12/05 03:24:27;;;;;;;25.53;16.73;;;;;;;4.85;71.87;99371.22;126592;1093;104423;-78
2020/12/05 03:26:55;;;;;;;26.20;17.63;;;;;;;4.88;71.89;99364.28;126738;1093;104481;-78
2020/12/05 03:29:22;;;;;;;26.97;15.87;;;;;;;4.88;71.31;99379.79;126683;1093;104522;-77
2020/12/05 03:31:56;;;;;;;25.43;16.63;;;;;;;4.90;71.74;99375.43;126621;1098;104433;-77
2020/12/05 03:34:24;;;;;;;24.83;16.53;;;;;;;4.92;71.41;99376.23;126661;1093;104651;-78
2020/12/05 03:36:51;;;;;;;24.20;15.67;;;;;;;4.91;71.15;99364.21;126595;1098;104475;-77
2020/12/05 03:39:18;;;;;;;23.60;15.83;;;;;;;4.91;71.72;99374.55;126676;1093;104471;-77
2020/12/05 03:41:45;;;;;;;25.50;16.62;;;;;;;4.92;71.75;99392.59;126615;1093;104650;-77
2020/12/05 03:44:12;;;;;;;28.43;17.00;;;;;;;4.94;71.82;99359.81;126620;1093;104435;-76
2020/12/05 03:46:40;;;;;;;28.23;16.93;;;;;;;4.97;71.71;99358.89;126660;1093;104521;-77
2020/12/05 03:49:07;;;;;;;23.17;16.60;;;;;;;4.98;71.69;99376.09;126679;1094;104414;-77
2020/12/05 03:51:34;;;;;;;25.48;17.25;;;;;;;5.01;71.08;99360.50;126715;1093;102705;-77
2020/12/05 03:54:01;;;;;;;24.93;16.57;;;;;;;5.05;71.46;99346.66;126668;1098;104558;-77
2020/12/05 03:56:28;;;;;;;23.57;15.77;;;;;;;5.08;70.76;99367.25;126707;1098;104359;-76
2020/12/05 03:58:55;;;;;;;23.90;15.67;;;;;;;5.11;71.38;99374.92;126613;1093;104542;-78
2020/12/05 04:01:22;;;;;;;27.40;17.37;;;;;;;5.14;70.99;99360.19;126651;1093;104503;-76
2020/12/05 04:03:49;;;;;;;26.33;16.57;;;;;;;5.19;71.17;99366.97;126658;1093;104555;-76
2020/12/05 04:06:17;;;;;;;26.20;16.40;;;;;;;5.22;70.67;99387.61;126622;1093;104368;-77
2020/12/05 04:08:44;;;;;;;23.18;15.40;;;;;;;5.24;70.49;99368.58;126758;1093;104442;-76
2020/12/05 04:11:11;;;;;;;25.60;16.33;;;;;;;5.25;70.92;99380.62;126674;1093;104445;-77
2020/12/05 04:13:38;;;;;;;27.47;17.50;;;;;;;5.22;70.86;99375.53;126706;1098;104577;-77
2020/12/05 04:16:05;;;;;;;23.30;16.70;;;;;;;5.18;70.30;99384.22;126502;1093;106017;-77
2020/12/05 04:18:32;;;;;;;26.23;17.63;;;;;;;5.15;70.43;99410.99;126693;1093;104449;-77
2020/12/05 04:20:59;;;;;;;24.70;16.77;;;;;;;5.12;71.09;99389.55;126657;1098;104402;-76
2020/12/05 04:23:26;;;;;;;25.00;16.83;;;;;;;5.07;71.01;99401.73;126680;1093;104454;-77
2020/12/05 04:25:54;;;;;;;22.53;15.80;;;;;;;5.04;71.27;99394.91;126697;1093;104395;-76
2020/12/05 04:28:21;;;;;;;24.47;17.63;;;;;;;5.03;70.83;99402.70;126704;1098;104509;-77
2020/12/05 04:30:48;;;;;;;26.60;17.47;;;;;;;5.00;70.83;99413.08;126659;1098;104382;-77
2020/12/05 04:33:15;;;;;;;27.37;17.23;;;;;;;4.97;70.91;99395.06;126656;1093;104861;-77
2020/12/05 04:35:42;;;;;;;24.10;16.50;;;;;;;4.95;71.73;99405.44;126645;1098;104515;-77
2020/12/05 04:38:09;;;;;;;25.45;16.37;;;;;;;4.93;71.72;99414.11;126585;1099;104577;-76
2020/12/05 04:40:36;;;;;;;25.40;17.30;;;;;;;4.90;71.96;99429.69;126627;1098;104392;-77
2020/12/05 04:43:03;;;;;;;25.97;15.67;;;;;;;4.88;72.06;99421.97;126328;1094;104446;-76
2020/12/05 04:45:31;;;;;;;24.53;15.97;;;;;;;4.89;72.10;99413.34;126730;1093;104452;-77
2020/12/05 04:48:01;;;;;;;26.30;17.23;;;;;;;4.89;72.09;99428.84;126649;1098;104301;-78
2020/12/05 04:50:29;;;;;;;23.13;15.10;;;;;;;4.85;71.70;99440.98;126663;1093;104465;-77
2020/12/05 04:53:09;;;;;;;27.73;17.53;;;;;;;4.85;72.14;99435.81;126684;1099;104445;-77
2020/12/05 04:55:40;;;;;;;24.87;16.90;;;;;;;4.86;71.70;99408.25;126738;1098;104879;-77
2020/12/05 04:58:19;;;;;;;26.20;16.53;;;;;;;4.85;71.74;99415.15;126640;1094;104549;-77
2020/12/05 05:00:54;;;;;;;24.13;15.87;;;;;;;4.87;72.27;99429.77;126442;1093;104279;-77
2020/12/05 05:03:24;;;;;;;25.07;16.50;;;;;;;4.88;72.37;99416.81;126649;1093;106010;-77
2020/12/05 05:05:57;;;;;;;26.90;16.60;;;;;;;4.85;72.13;99422.90;126474;1093;104461;-77
2020/12/05 05:08:26;;;;;;;24.23;16.10;;;;;;;4.82;71.85;99424.67;126807;1093;104467;-77
2020/12/05 05:11:09;;;;;;;26.23;17.23;;;;;;;4.82;71.91;99417.77;126458;1093;104439;-77
2020/12/05 05:13:51;;;;;;;30.53;17.60;;;;;;;4.80;72.08;99429.02;126590;1093;104536;-78
2020/12/05 05:16:20;;;;;;;27.57;16.47;;;;;;;4.76;72.28;99410.16;126668;1093;104292;-76
2020/12/05 05:18:47;;;;;;;25.00;16.73;;;;;;;4.76;72.82;99429.98;126617;1093;104485;-76
2020/12/05 05:21:34;;;;;;;28.17;18.47;;;;;;;4.73;72.93;99410.23;126664;1093;104416;-77
2020/12/05 05:24:10;;;;;;;26.57;17.50;;;;;;;4.70;72.73;99415.48;126621;1098;104392;-77
2020/12/05 05:26:37;;;;;;;21.70;17.03;;;;;;;4.71;72.99;99422.34;126647;1098;104468;-77
2020/12/05 05:29:05;;;;;;;25.03;17.27;;;;;;;4.76;72.98;99412.75;126564;1093;104474;-78
2020/12/05 05:32:23;;;;;;;25.87;17.23;;;;;;;4.76;72.42;99422.23;126766;1093;104525;-76
2020/12/05 05:34:29;;;;;;;25.97;16.70;;;;;;;4.79;73.08;99422.16;126573;1093;104495;-77
2020/12/05 05:36:57;;;;;;;24.97;17.03;;;;;;;4.83;72.36;99428.95;126626;1093;104538;-77
2020/12/05 05:39:24;;;;;;;25.05;16.73;;;;;;;4.91;72.55;99452.06;126539;1093;104506;-76
2020/12/05 05:41:56;;;;;;;24.83;16.03;;;;;;;4.96;72.39;99429.55;126575;1098;104523;-77
2020/12/05 05:44:27;;;;;;;24.73;16.33;;;;;;;5.00;71.92;99432.02;126615;1098;104477;-77
2020/12/05 05:46:56;;;;;;;24.83;17.07;;;;;;;5.04;71.84;99464.69;126655;1092;102056;-78
2020/12/05 05:49:31;;;;;;;29.55;17.20;;;;;;;5.08;72.32;99470.62;126617;1093;104432;-76
2020/12/05 05:52:01;;;;;;;;;;;;;;;5.11;72.31;99455.89;126657;1098;104272;-77
2020/12/05 05:54:29;;;;;;;25.30;16.07;;;;;;;5.18;72.08;99448.84;126645;1098;104430;-76
2020/12/05 05:57:08;;;;;;;27.85;17.55;;;;;;;5.23;71.90;99438.42;126665;1093;104448;-77
2020/12/05 05:59:40;;;;;;;23.60;16.10;;;;;;;5.25;71.38;99460.76;126699;1093;104407;-77
2020/12/05 06:02:15;;;;;;;24.37;16.27;;;;;;;5.29;71.80;99444.28;126691;1093;104529;-77
2020/12/05 06:04:47;;;;;;;23.50;16.13;;;;;;;5.33;71.07;99450.23;126680;1093;104487;-77
2020/12/05 06:07:18;;;;;;;23.27;16.43;;;;;;;5.40;71.02;99451.80;126674;1098;104392;-77
2020/12/05 06:09:53;;;;;;;22.03;15.83;;;;;;;5.44;70.78;99462.03;126666;1093;103628;-76
2020/12/05 06:12:23;;;;;;;22.35;15.32;;;;;;;5.46;70.91;99468.01;126638;1093;104929;-76
2020/12/05 06:14:51;;;;;;;25.67;16.87;;;;;;;5.46;71.04;99482.67;126714;1093;104437;-77
2020/12/05 06:17:20;;;;;;;26.95;17.25;;;;;;;5.43;70.91;99459.48;126636;1093;104660;-76
2020/12/05 06:19:49;;;;;;;25.47;16.63;;;;;;;5.41;70.34;99476.77;126661;1093;104477;-77
2020/12/05 06:22:27;;;;;;;25.37;17.50;;;;;;;5.37;70.39;99452.70;126663;1093;104370;-77
2020/12/05 06:25:15;;;;;;;26.90;17.33;;;;;;;5.33;71.21;99445.05;126665;1093;104389;-77
2020/12/05 06:27:48;;;;;;;24.67;16.90;;;;;;;5.25;70.60;99462.50;126727;1093;104496;-77
2020/12/05 06:30:15;;;;;;;26.40;16.93;;;;;;;5.15;71.33;99454.09;126606;1093;104522;-77
2020/12/05 06:32:46;;;;;;;29.57;18.70;;;;;;;5.06;71.49;99454.31;126686;1093;104388;-77
2020/12/05 06:35:17;;;;;;;30.00;18.03;;;;;;;5.05;71.86;99486.20;126638;1093;104478;-76
2020/12/05 06:37:44;;;;;;;25.50;16.80;;;;;;;5.02;72.03;99463.84;126581;1099;104394;-77
2020/12/05 06:40:12;;;;;;;27.90;18.13;;;;;;;5.00;71.82;99457.01;126681;1098;104962;-76
2020/12/05 06:42:40;;;;;;;28.07;18.70;;;;;;;5.00;71.85;99469.93;126487;1093;104548;-77
2020/12/05 06:45:08;;;;;;;27.13;17.00;;;;;;;4.99;71.48;99468.23;126794;1093;104465;-75
2020/12/05 06:47:35;;;;;;;26.70;17.70;;;;;;;5.02;71.90;99473.33;126664;1093;104436;-78
2020/12/05 06:50:02;;;;;;;25.73;17.67;;;;;;;5.01;72.15;99474.21;126633;1094;104497;-76
2020/12/05 06:52:29;;;;;;;29.33;18.87;;;;;;;4.99;72.03;99471.66;126601;1098;104262;-77
2020/12/05 06:55:32;;;;;;;27.90;17.90;;;;;;;4.95;72.35;99495.03;126625;1093;104391;-76
2020/12/05 06:58:05;;;;;;;28.77;17.43;;;;;;;4.96;72.32;99470.89;126579;1093;104385;-76
2020/12/05 07:00:37;;;;;;;29.53;19.63;;;;;;;4.97;72.17;99501.02;126676;1092;104405;-77
2020/12/05 07:03:11;;;;;;;27.20;18.65;;;;;;;4.95;72.12;99482.11;126535;1093;104414;-77
2020/12/05 07:05:45;;;;;;;25.83;17.43;;;;;;;4.99;72.36;99486.32;126673;1099;104491;-77
2020/12/05 07:08:26;;;;;;;27.95;17.85;;;;;;;5.03;72.36;99483.66;126649;1098;104389;-77
2020/12/05 07:10:56;;;;;;;29.47;18.83;;;;;;;5.05;71.97;99502.56;126662;1099;104423;-77
2020/12/05 07:13:45;;;;;;;25.60;17.73;;;;;;;5.08;72.05;99486.98;126641;1093;104608;-77
2020/12/05 07:16:17;;;;;;;30.53;18.87;;;;;;;5.16;71.89;99499.73;126650;1093;104447;-77
2020/12/05 07:18:52;;;;;;;29.93;19.50;;;;;;;5.24;71.22;99503.02;126645;1093;104729;-77
2020/12/05 07:21:21;;;;;;;25.23;17.97;;;;;;;5.35;70.78;99510.51;126580;1093;104235;-77
2020/12/05 07:23:51;;;;;;;30.30;19.33;;;;;;;5.53;70.53;99515.26;126665;1093;104363;-77
2020/12/05 07:26:19;;;;;;;28.77;20.27;;;;;;;5.69;70.51;99488.14;126670;1098;104430;-76
2020/12/05 07:28:52;;;;;;;27.57;18.57;;;;;;;5.75;69.75;99489.75;126487;1093;104449;-76
2020/12/05 07:31:19;;;;;;;28.30;18.83;;;;;;;5.77;69.51;99506.08;126547;1098;104511;-76
2020/12/05 07:33:47;;;;;;;29.57;19.37;;;;;;;5.80;69.88;99499.98;126637;1098;104560;-77
2020/12/05 07:36:17;;;;;;;28.97;19.80;;;;;;;5.84;69.87;99505.03;126708;1093;101953;-76
2020/12/05 07:38:46;;;;;;;30.53;20.17;;;;;;;5.90;69.82;99511.81;126579;1093;104395;-77
2020/12/05 07:41:20;;;;;;;26.43;18.70;;;;;;;5.96;69.58;99541.01;126694;1093;104378;-76
2020/12/05 07:43:48;;;;;;;32.03;18.97;;;;;;;6.05;69.46;99514.02;126708;1093;104494;-76
2020/12/05 07:46:16;;;;;;;33.67;19.67;;;;;;;6.11;69.15;99533.75;126675;1093;104522;-77
2020/12/05 07:48:43;;;;;;;30.63;19.60;;;;;;;6.14;68.96;99523.31;126678;1093;105183;-77
2020/12/05 07:51:16;;;;;;;28.63;18.37;;;;;;;6.20;69.45;99523.14;126662;1099;104513;-76
2020/12/05 07:53:44;;;;;;;30.03;19.00;;;;;;;6.26;69.03;99538.52;126471;1093;104453;-76
2020/12/05 07:56:25;;;;;;;32.53;19.13;;;;;;;6.31;68.77;99541.85;126724;1093;104499;-77
2020/12/05 07:58:53;;;;;;;33.10;20.20;;;;;;;6.33;68.35;99548.69;126519;1098;104605;-77
2020/12/05 08:01:43;;;;;;;30.07;20.03;;;;;;;6.33;68.29;99551.28;126739;1093;104403;-77
2020/12/05 08:04:48;;;;;;;30.53;19.00;;;;;;;6.33;68.43;99546.09;126681;1093;104394;-77
2020/12/05 08:07:33;;;;;;;35.67;20.23;;;;;;;6.35;68.07;99554.67;126671;1093;104442;-77
2020/12/05 08:10:06;;;;;;;32.33;20.70;;;;;;;6.36;68.40;99540.83;126583;1098;104456;-77
2020/12/05 08:12:48;;;;;;;30.23;19.47;;;;;;;6.35;67.79;99564.19;126636;1093;104538;-77
2020/12/05 08:15:19;;;;;;;30.70;19.13;;;;;;;6.36;67.86;99556.38;126670;1098;104550;-77
2020/12/05 08:17:48;;;;;;;30.60;20.30;;;;;;;6.43;68.11;99546.69;126697;1093;104491;-77
2020/12/05 08:20:16;;;;;;;31.20;20.50;;;;;;;6.49;67.78;99543.11;126713;1093;103340;-77
2020/12/05 08:22:43;;;;;;;32.03;20.70;;;;;;;6.54;67.80;99554.19;126661;1093;104873;-77
2020/12/05 08:25:12;;;;;;;28.30;19.17;;;;;;;6.60;67.69;99541.06;126610;1098;104484;-77
2020/12/05 08:27:39;;;;;;;33.77;20.87;;;;;;;6.67;67.25;99558.16;126726;1093;104471;-77
2020/12/05 08:30:06;;;;;;;34.73;21.60;;;;;;;6.76;67.30;99544.09;126649;1093;104383;-78
2020/12/05 08:32:33;;;;;;;33.67;21.67;;;;;;;6.87;67.38;99557.61;126703;1093;104390;-77
2020/12/05 08:35:07;;;;;;;32.37;20.80;;;;;;;6.97;66.56;99578.02;126687;1093;104516;-78
2020/12/05 08:37:35;;;;;;;32.93;20.57;;;;;;;7.05;66.58;99557.08;126461;1093;104244;-78
2020/12/05 08:40:03;;;;;;;31.27;18.70;;;;;;;7.13;66.95;99552.52;126753;1098;103893;-78
2020/12/05 08:42:30;;;;;;;28.27;19.83;;;;;;;7.24;66.27;99557.40;126734;1098;104436;-77
2020/12/05 08:44:57;;;;;;;31.80;20.47;;;;;;;7.30;65.85;99567.58;126714;1093;104418;-78
2020/12/05 08:47:24;;;;;;;29.10;19.40;;;;;;;7.36;66.03;99553.56;126695;1093;104400;-78
2020/12/05 08:49:51;;;;;;;31.03;21.07;;;;;;;7.38;65.40;99544.88;126689;1093;104625;-78
2020/12/05 08:52:24;;;;;;;31.83;20.20;;;;;;;7.45;65.35;99571.47;126632;1098;104400;-77
2020/12/05 08:54:52;;;;;;;26.03;19.00;;;;;;;7.53;64.96;99557.35;126671;1091;105739;-78
2020/12/05 08:57:20;;;;;;;29.67;18.90;;;;;;;7.63;65.15;99539.77;126724;1093;102731;-78
2020/12/05 08:59:47;;;;;;;30.80;20.03;;;;;;;7.74;64.89;99550.67;126627;1093;103785;-78
2020/12/05 09:02:15;;;;;;;31.52;19.85;;;;;;;7.82;64.46;99556.45;126641;1093;104456;-78
2020/12/05 09:04:42;;;;;;;28.20;20.23;;;;;;;7.86;64.28;99552.85;126656;1093;104543;-78
2020/12/05 09:07:14;;;;;;;28.32;18.85;;;;;;;7.91;64.45;99544.94;126660;1093;104458;-77
2020/12/05 09:09:43;;;;;;;30.20;20.40;;;;;;;7.96;64.43;99552.58;126734;1098;104420;-78
2020/12/05 09:12:13;;;;;;;31.40;19.97;;;;;;;7.94;64.39;99538.80;126686;1098;104451;-77
2020/12/05 09:14:41;;;;;;;31.07;20.40;;;;;;;7.95;63.92;99553.47;126726;1098;104420;-76
2020/12/05 09:17:30;;;;;;;27.53;18.20;;;;;;;7.96;63.88;99583.73;126704;1093;104452;-78
2020/12/05 09:20:21;;;;;;;26.50;18.80;;;;;;;8.01;64.11;99566.25;126678;1093;104452;-78
2020/12/05 09:22:53;;;;;;;27.87;20.13;;;;;;;8.01;63.88;99554.11;126694;1094;101927;-78
2020/12/05 09:25:32;;;;;;;27.53;19.00;;;;;;;8.03;63.55;99574.83;126647;1093;104423;-78
2020/12/05 09:28:01;;;;;;;29.53;19.17;;;;;;;8.04;63.91;99571.34;126643;1098;104391;-78
2020/12/05 09:30:29;;;;;;;29.73;19.80;;;;;;;8.10;63.94;99534.80;126802;1093;105843;-77
2020/12/05 09:32:56;;;;;;;37.27;20.03;;;;;;;8.14;63.49;99581.39;126727;1093;104430;-77
2020/12/05 09:35:25;;;;;;;28.97;19.10;;;;;;;8.17;63.62;99562.25;126633;1093;104936;-77
2020/12/05 09:37:52;;;;;;;29.50;18.40;;;;;;;8.19;63.27;99555.25;126701;1091;104452;-77
2020/12/05 09:40:20;;;;;;;27.90;18.10;;;;;;;8.24;63.60;99558.53;126641;1093;104551;-77
2020/12/05 09:42:49;;;;;;;26.93;18.77;;;;;;;8.26;63.03;99572.35;126762;1098;104550;-77
2020/12/05 09:45:16;;;;;;;30.17;18.50;;;;;;;8.31;62.67;99580.83;126644;1093;104427;-78
2020/12/05 09:47:44;;;;;;;27.77;19.30;;;;;;;8.36;62.70;99555.56;126702;1099;104445;-77
2020/12/05 09:50:12;;;;;;;27.70;18.83;;;;;;;8.41;62.64;99597.83;126637;1093;104530;-78
2020/12/05 09:52:39;;;;;;;27.17;19.53;;;;;;;8.45;62.41;99578.66;126635;1093;104510;-78
2020/12/05 09:55:06;;;;;;;28.47;19.45;;;;;;;8.48;62.38;99594.14;126652;1093;104516;-77
2020/12/05 09:57:33;;;;;;;30.57;18.90;;;;;;;8.56;62.31;99580.02;126673;1093;104363;-77
2020/12/05 10:00:03;;;;;;;33.37;20.03;;;;;;;8.63;62.52;99560.73;126718;1098;104371;-77
2020/12/05 10:02:30;;;;;;;28.20;19.57;;;;;;;8.71;62.08;99576.89;126684;1094;104452;-78
2020/12/05 10:04:58;;;;;;;29.77;19.97;;;;;;;8.85;61.70;99563.41;126670;1093;103445;-78
2020/12/05 10:07:25;;;;;;;28.20;19.07;;;;;;;8.97;61.33;99571.59;126691;1093;104475;-78
2020/12/05 10:09:52;;;;;;;28.87;18.73;;;;;;;9.15;61.95;99564.02;126685;1093;104376;-78
2020/12/05 10:12:19;;;;;;;32.47;19.13;;;;;;;9.30;60.78;99568.66;126643;1093;104466;-77
2020/12/05 10:14:46;;;;;;;27.80;18.83;;;;;;;9.46;60.74;99571.53;126685;1093;104362;-78
2020/12/05 10:17:13;;;;;;;28.27;18.87;;;;;;;9.62;60.14;99581.30;126657;1093;104622;-77
2020/12/05 10:19:41;;;;;;;30.30;18.93;;;;;;;9.79;59.11;99650.95;126760;1098;104542;-77
2020/12/05 10:22:20;;;;;;;27.77;18.27;;;;;;;9.92;59.25;99581.01;126689;1093;104398;-77
2020/12/05 10:24:49;;;;;;;28.90;20.23;;;;;;;10.04;59.72;99577.89;126618;1093;104513;-78
2020/12/05 10:27:17;;;;;;;32.30;19.53;;;;;;;10.12;59.31;99568.02;126653;1093;104500;-77
2020/12/05 10:29:44;;;;;;;29.63;18.13;;;;;;;10.15;58.25;99569.64;126668;1093;104478;-78
2020/12/05 10:32:11;;;;;;;26.82;19.25;;;;;;;10.16;58.50;99598.25;126668;1093;104430;-77
2020/12/05 10:34:39;;;;;;;26.33;19.13;;;;;;;10.10;58.25;99614.14;126676;1093;105600;-78
2020/12/05 10:37:06;;;;;;;24.30;17.53;;;;;;;10.03;58.89;99572.74;126698;1093;104431;-77
2020/12/05 10:39:33;;;;;;;27.60;19.15;;;;;;;10.04;59.16;99566.63;126603;1098;104407;-77
2020/12/05 10:42:01;;;;;;;25.10;18.60;;;;;;;10.14;58.34;99588.80;126502;1098;104571;-77
2020/12/05 10:44:28;;;;;;;25.67;18.97;;;;;;;10.20;58.73;99585.94;126673;1093;104475;-77
2020/12/05 10:46:55;;;;;;;24.02;17.80;;;;;;;10.33;57.85;99583.70;126541;1098;104385;-76
2020/12/05 10:49:23;;;;;;;25.80;17.90;;;;;;;10.47;59.03;99568.34;126628;1093;104198;-77
2020/12/05 10:51:50;;;;;;;25.43;17.97;;;;;;;10.56;58.18;99580.97;126564;1093;104464;-77
2020/12/05 10:54:17;;;;;;;30.05;17.00;;;;;;;10.68;57.76;99569.18;126698;1093;104484;-77
2020/12/05 10:56:44;;;;;;;28.00;18.00;;;;;;;10.78;56.66;99597.42;126774;1098;104516;-76
2020/12/05 10:59:12;;;;;;;24.67;17.33;;;;;;;10.85;56.81;99603.20;126677;1098;104417;-77
2020/12/05 11:01:41;;;;;;;26.37;17.67;;;;;;;10.92;57.40;99588.12;126582;1093;104403;-78
2020/12/05 11:04:08;;;;;;;27.20;17.37;;;;;;;11.01;57.21;99578.14;126525;1098;104503;-77
2020/12/05 11:06:35;;;;;;;27.30;17.90;;;;;;;11.07;56.30;99569.18;126663;1093;104433;-78
2020/12/05 11:09:03;;;;;;;23.03;15.80;;;;;;;11.06;56.65;99585.76;126660;1093;103596;-78
2020/12/05 11:11:30;;;;;;;21.90;17.03;;;;;;;11.10;55.87;99610.80;126654;1093;104548;-77
2020/12/05 11:13:57;;;;;;;22.03;16.67;;;;;;;11.15;56.92;99586.20;126429;1093;104462;-78
2020/12/05 11:16:24;;;;;;;24.37;17.07;;;;;;;11.17;57.09;99583.52;126681;1098;104484;-78
2020/12/05 11:18:53;;;;;;;25.47;17.10;;;;;;;11.21;56.84;99579.85;126672;1099;104827;-77
2020/12/05 11:21:20;;;;;;;26.97;17.37;;;;;;;11.24;55.95;99569.27;126614;1094;104500;-78